createdAt,value
2022-09-10T00:00:29.819Z,100.00
2022-09-10T00:02:57.369Z,100.00
2022-09-10T00:05:24.881Z,100.00
2022-09-10T00:07:52.772Z,100.00
2022-09-10T00:10:20.670Z,100.00
2022-09-10T00:12:48.739Z,100.00
2022-09-10T00:15:16.407Z,100.00
2022-09-10T00:17:45.301Z,100.00
2022-09-10T00:20:13.259Z,100.00
2022-09-10T00:22:40.792Z,100.00
2022-09-10T00:25:09.148Z,100.00
2022-09-10T00:27:37.470Z,100.00
2022-09-10T00:30:05.708Z,100.00
2022-09-10T00:32:34.768Z,100.00
2022-09-10T00:35:04.252Z,100.00
2022-09-10T00:37:31.736Z,100.00
2022-09-10T00:39:59.459Z,100.00
2022-09-10T00:42:27.015Z,100.00
2022-09-10T00:45:03.424Z,100.00
2022-09-10T00:47:34.273Z,100.00
2022-09-10T00:50:07.569Z,100.00
2022-09-10T00:52:39.598Z,100.00
2022-09-10T00:55:08.574Z,100.00
2022-09-10T00:57:36.122Z,100.00
2022-09-10T01:00:07.953Z,100.00
2022-09-10T01:02:35.918Z,100.00
2022-09-10T01:05:05.840Z,100.00
2022-09-10T01:07:34.686Z,100.00
2022-09-10T01:10:06.378Z,100.00
2022-09-10T01:13:07.436Z,100.00
2022-09-10T01:15:40.895Z,100.00
2022-09-10T01:18:20.205Z,100.00
2022-09-10T01:21:06.190Z,100.00
2022-09-10T01:24:21.643Z,100.00
2022-09-10T01:27:17.328Z,100.00
2022-09-10T01:29:49.968Z,100.00
2022-09-10T01:32:21.708Z,100.00
2022-09-10T01:34:55.358Z,100.00
2022-09-10T01:37:25.140Z,100.00
2022-09-10T01:39:53.696Z,100.00
2022-09-10T01:42:21.252Z,100.00
2022-09-10T01:44:51.216Z,100.00
2022-09-10T01:47:28.686Z,100.00
2022-09-10T01:50:07.167Z,100.00
2022-09-10T01:52:42.200Z,100.00
2022-09-10T01:55:19.120Z,100.00
2022-09-10T01:57:52.936Z,100.00
2022-09-10T02:00:22.882Z,100.00
2022-09-10T02:02:54.478Z,100.00
2022-09-10T02:05:24.038Z,100.00
2022-09-10T02:07:54.710Z,100.00
2022-09-10T02:10:23.561Z,100.00
2022-09-10T02:12:51.251Z,100.00
2022-09-10T02:15:19.715Z,100.00
2022-09-10T02:17:49.038Z,100.00
2022-09-10T02:20:17.385Z,100.00
2022-09-10T02:22:49.767Z,100.00
2022-09-10T02:25:17.316Z,100.00
2022-09-10T02:27:45.787Z,100.00
2022-09-10T02:30:13.693Z,100.00
2022-09-10T02:32:41.223Z,100.00
2022-09-10T02:35:10.585Z,100.00
2022-09-10T02:37:38.085Z,100.00
2022-09-10T02:40:06.717Z,100.00
2022-09-10T02:42:34.257Z,100.00
2022-09-10T02:45:01.755Z,100.00
2022-09-10T02:47:30.008Z,100.00
2022-09-10T02:49:57.524Z,100.00
2022-09-10T02:52:26.977Z,100.00
2022-09-10T02:54:54.460Z,100.00
2022-09-10T02:57:21.940Z,100.00
2022-09-10T02:59:49.432Z,100.00
2022-09-10T03:02:16.976Z,100.00
2022-09-10T03:04:44.487Z,100.00
2022-09-10T03:07:11.998Z,100.00
2022-09-10T03:09:40.995Z,100.00
2022-09-10T03:12:08.763Z,100.00
2022-09-10T03:14:36.269Z,100.00
2022-09-10T03:17:05.071Z,100.00
2022-09-10T03:19:32.594Z,100.00
2022-09-10T03:22:00.131Z,100.00
2022-09-10T03:24:28.372Z,100.00
2022-09-10T03:26:57.203Z,100.00
2022-09-10T03:29:24.722Z,100.00
2022-09-10T03:31:52.297Z,100.00
2022-09-10T03:34:20.408Z,100.00
2022-09-10T03:36:48.212Z,100.00
2022-09-10T03:39:16.173Z,100.00
2022-09-10T03:41:45.325Z,100.00
2022-09-10T03:44:14.280Z,100.00
2022-09-10T03:46:41.784Z,100.00
2022-09-10T03:49:09.533Z,100.00
2022-09-10T03:51:37.063Z,100.00
2022-09-10T03:54:05.980Z,100.00
2022-09-10T03:56:33.949Z,100.00
2022-09-10T03:59:01.468Z,100.00
2022-09-10T04:01:30.316Z,100.00
2022-09-10T04:03:58.282Z,100.00
2022-09-10T04:06:25.780Z,100.00
2022-09-10T04:08:53.928Z,100.00
2022-09-10T04:11:23.840Z,100.00
2022-09-10T04:13:51.333Z,100.00
2022-09-10T04:16:18.878Z,100.00
2022-09-10T04:18:47.759Z,100.00
2022-09-10T04:21:15.683Z,100.00
2022-09-10T04:23:45.527Z,100.00
2022-09-10T04:26:14.556Z,100.00
2022-09-10T04:28:42.080Z,100.00
2022-09-10T04:31:09.887Z,100.00
2022-09-10T04:33:38.067Z,100.00
2022-09-10T04:36:07.895Z,100.00
2022-09-10T04:38:39.959Z,100.00
2022-09-10T04:41:07.732Z,100.00
2022-09-10T04:43:35.643Z,100.00
2022-09-10T04:46:03.248Z,100.00
2022-09-10T04:48:30.877Z,100.00
2022-09-10T04:53:47.295Z,100.00
2022-09-10T04:56:15.360Z,100.00
2022-09-10T04:58:44.060Z,100.00
2022-09-10T05:01:11.999Z,100.00
2022-09-10T05:03:39.668Z,100.00
2022-09-10T05:06:07.467Z,100.00
2022-09-10T05:08:35.063Z,100.00
2022-09-10T05:11:04.066Z,100.00
2022-09-10T05:13:32.018Z,100.00
2022-09-10T05:15:59.725Z,100.00
2022-09-10T05:18:27.243Z,100.00
2022-09-10T05:20:54.932Z,100.00
2022-09-10T05:23:22.865Z,100.00
2022-09-10T05:25:50.373Z,100.00
2022-09-10T05:28:20.766Z,100.00
2022-09-10T05:30:51.542Z,100.00
2022-09-10T05:33:19.514Z,100.00
2022-09-10T05:35:49.247Z,100.00
2022-09-10T05:38:16.722Z,100.00
2022-09-10T05:40:44.271Z,100.00
2022-09-10T05:43:12.148Z,100.00
2022-09-10T05:45:41.018Z,100.00
2022-09-10T05:48:08.540Z,100.00
2022-09-10T05:50:36.034Z,100.00
2022-09-10T05:53:03.548Z,100.00
2022-09-10T05:55:33.008Z,100.00
2022-09-10T05:58:00.549Z,100.00
2022-09-10T06:00:28.057Z,100.00
2022-09-10T06:02:57.700Z,100.00
2022-09-10T06:05:25.370Z,100.00
2022-09-10T06:07:52.880Z,100.00
2022-09-10T06:10:20.813Z,100.00
2022-09-10T06:12:49.563Z,100.00
2022-09-10T06:15:17.303Z,100.00
2022-09-10T06:17:44.831Z,100.00
2022-09-10T06:20:13.776Z,100.00
2022-09-10T06:22:41.467Z,100.00
2022-09-10T06:25:09.959Z,100.00
2022-09-10T06:27:37.531Z,100.00
2022-09-10T06:30:05.935Z,100.00
2022-09-10T06:32:33.479Z,100.00
2022-09-10T06:35:00.982Z,100.00
2022-09-10T06:37:34.906Z,100.00
2022-09-10T06:40:02.861Z,100.00
2022-09-10T06:42:32.060Z,100.00
2022-09-10T06:45:00.250Z,100.00
2022-09-10T06:48:18.724Z,100.00
2022-09-10T06:50:15.393Z,100.00
2022-09-10T06:52:44.251Z,100.00
2022-09-10T06:55:11.759Z,100.00
2022-09-10T06:57:39.946Z,100.00
2022-09-10T07:00:08.847Z,100.00
2022-09-10T07:02:36.477Z,100.00
2022-09-10T07:05:04.174Z,100.00
2022-09-10T07:07:31.753Z,100.00
2022-09-10T07:10:01.345Z,100.00
2022-09-10T07:12:28.848Z,100.00
2022-09-10T07:14:56.330Z,100.00
2022-09-10T07:17:23.930Z,100.00
2022-09-10T07:19:51.470Z,100.00
2022-09-10T07:22:19.339Z,100.00
2022-09-10T07:24:50.179Z,100.00
2022-09-10T07:27:19.028Z,100.00
2022-09-10T07:29:46.547Z,100.00
2022-09-10T07:32:14.064Z,100.00
2022-09-10T07:34:41.575Z,100.00
2022-09-10T07:37:09.071Z,100.00
2022-09-10T07:39:36.863Z,100.00
2022-09-10T07:42:04.689Z,100.00
2022-09-10T07:44:33.550Z,100.00
2022-09-10T07:47:01.538Z,100.00
2022-09-10T07:49:30.128Z,100.00
2022-09-10T07:52:00.106Z,100.00
2022-09-10T07:54:28.365Z,100.00
2022-09-10T07:56:55.895Z,100.00
2022-09-10T07:59:23.443Z,100.00
2022-09-10T08:01:52.438Z,100.00
2022-09-10T08:04:20.035Z,100.00
2022-09-10T08:06:47.561Z,100.00
2022-09-10T08:09:15.270Z,100.00
2022-09-10T08:11:42.810Z,100.00
2022-09-10T08:14:10.400Z,100.00
2022-09-10T08:16:41.246Z,100.00
2022-09-10T08:19:13.713Z,100.00
2022-09-10T08:21:41.275Z,100.00
2022-09-10T08:24:10.455Z,100.00
2022-09-10T08:26:37.972Z,100.00
2022-09-10T08:29:05.512Z,100.00
2022-09-10T08:31:33.008Z,100.00
2022-09-10T08:34:00.500Z,100.00
2022-09-10T08:36:29.366Z,100.00
2022-09-10T08:39:01.431Z,100.00
2022-09-10T08:41:40.903Z,100.00
2022-09-10T08:44:13.646Z,100.00
2022-09-10T08:46:44.750Z,100.00
2022-09-10T08:49:15.450Z,100.00
2022-09-10T08:51:47.804Z,100.00
2022-09-10T08:54:17.861Z,100.00
2022-09-10T08:56:46.851Z,100.00
2022-09-10T08:59:21.603Z,100.00
2022-09-10T09:01:52.169Z,100.00
2022-09-10T09:04:28.656Z,100.00
2022-09-10T09:07:00.022Z,100.00
2022-09-10T09:09:27.546Z,100.00
2022-09-10T09:12:00.069Z,100.00
2022-09-10T09:14:37.295Z,100.00
2022-09-10T09:17:16.966Z,100.00
2022-09-10T09:19:46.999Z,100.00
2022-09-10T09:22:19.148Z,100.00
2022-09-10T09:24:53.640Z,100.00
2022-09-10T09:27:21.143Z,100.00
2022-09-10T09:29:52.962Z,100.00
2022-09-10T09:32:21.719Z,100.00
2022-09-10T09:34:51.105Z,100.00
2022-09-10T09:37:22.259Z,100.00
2022-09-10T09:39:59.402Z,100.00
2022-09-10T09:42:34.660Z,100.00
2022-09-10T09:45:08.466Z,100.00
2022-09-10T09:47:35.983Z,100.00
2022-09-10T09:50:03.479Z,100.00
2022-09-10T09:52:33.093Z,100.00
2022-09-10T09:55:15.519Z,100.00
2022-09-10T09:57:43.559Z,100.00
2022-09-10T10:00:34.426Z,100.00
2022-09-10T10:03:07.040Z,93.83
2022-09-10T10:05:34.569Z,100.00
2022-09-10T10:08:03.751Z,100.00
2022-09-10T10:10:31.302Z,100.00
2022-09-10T10:12:58.868Z,100.00
2022-09-10T10:15:37.518Z,100.00
2022-09-10T10:18:25.372Z,100.00
2022-09-10T10:21:13.881Z,100.00
2022-09-10T10:23:43.026Z,92.29
2022-09-10T10:26:30.277Z,94.70
2022-09-10T10:29:00.323Z,100.00
2022-09-10T10:31:36.601Z,96.99
2022-09-10T10:34:18.075Z,100.00
2022-09-10T10:36:52.198Z,96.79
2022-09-10T10:39:24.827Z,91.97
2022-09-10T10:42:04.269Z,94.56
2022-09-10T10:44:49.451Z,100.00
2022-09-10T10:47:29.744Z,100.00
2022-09-10T10:50:04.395Z,100.00
2022-09-10T10:52:40.823Z,86.64
2022-09-10T10:55:17.194Z,82.54
2022-09-10T10:57:59.618Z,94.08
2022-09-10T11:00:27.626Z,99.81
2022-09-10T11:03:02.155Z,95.77
2022-09-10T11:05:32.131Z,97.47
2022-09-10T11:08:00.551Z,84.65
2022-09-10T11:10:33.870Z,90.16
2022-09-10T11:13:05.931Z,90.14
2022-09-10T11:15:36.524Z,79.24
2022-09-10T11:18:08.583Z,81.76
2022-09-10T11:20:38.855Z,89.55
2022-09-10T11:23:14.693Z,83.85
2022-09-10T11:25:54.183Z,80.20
2022-09-10T11:28:25.023Z,78.42
2022-09-10T11:30:57.735Z,82.17
2022-09-10T11:33:29.477Z,74.71
2022-09-10T11:36:03.661Z,75.73
2022-09-10T11:38:36.753Z,81.87
2022-09-10T11:41:10.255Z,81.57
2022-09-10T11:43:42.204Z,77.86
2022-09-10T11:46:13.868Z,79.82
2022-09-10T11:48:43.791Z,88.37
2022-09-10T11:51:20.353Z,76.61
2022-09-10T11:53:47.927Z,73.98
2022-09-10T11:56:30.492Z,76.76
2022-09-10T11:59:09.553Z,81.75
2022-09-10T12:01:51.778Z,79.45
2022-09-10T12:04:38.011Z,74.76
2022-09-10T12:07:14.332Z,61.38
2022-09-10T12:09:49.695Z,62.99
2022-09-10T12:12:25.167Z,65.64
2022-09-10T12:14:52.695Z,59.57
2022-09-10T12:17:24.311Z,58.79
2022-09-10T12:19:54.695Z,61.68
2022-09-10T12:22:26.011Z,65.91
2022-09-10T12:24:56.315Z,64.59
2022-09-10T12:27:44.714Z,60.88
2022-09-10T12:31:03.230Z,69.53
2022-09-10T12:34:15.763Z,62.96
2022-09-10T12:37:21.268Z,69.73
2022-09-10T12:39:49.474Z,74.53
2022-09-10T12:42:31.551Z,72.26
2022-09-10T12:44:59.066Z,70.63
2022-09-10T12:47:53.399Z,72.56
2022-09-10T12:50:33.979Z,70.78
2022-09-10T12:53:31.914Z,70.54
2022-09-10T12:56:02.723Z,70.83
2022-09-10T12:58:49.642Z,67.32
2022-09-10T13:01:26.227Z,67.57
2022-09-10T13:03:57.039Z,64.10
2022-09-10T13:06:35.859Z,65.09
2022-09-10T13:09:06.010Z,66.44
2022-09-10T13:11:36.130Z,66.96
2022-09-10T13:14:05.927Z,71.11
2022-09-10T13:16:41.220Z,65.50
2022-09-10T13:19:46.366Z,67.23
2022-09-10T13:22:36.106Z,71.28
2022-09-10T13:25:07.171Z,75.20
2022-09-10T13:27:40.459Z,76.15
2022-09-10T13:30:17.123Z,80.18
2022-09-10T13:32:48.256Z,79.47
2022-09-10T13:35:48.053Z,82.60
2022-09-10T13:38:43.300Z,80.90
2022-09-10T13:41:27.905Z,77.79
2022-09-10T13:44:07.161Z,78.16
2022-09-10T13:46:38.135Z,77.84
2022-09-10T13:49:09.189Z,69.52
2022-09-10T13:51:40.588Z,70.26
2022-09-10T13:54:13.795Z,72.24
2022-09-10T13:56:43.624Z,70.57
2022-09-10T13:59:25.334Z,74.15
2022-09-10T14:01:55.261Z,70.89
2022-09-10T14:04:27.280Z,68.99
2022-09-10T14:08:30.336Z,70.30
2022-09-10T14:11:00.801Z,71.20
2022-09-10T14:13:31.038Z,68.43
2022-09-10T14:16:01.445Z,70.60
2022-09-10T14:18:35.272Z,67.60
2022-09-10T14:21:03.357Z,67.46
2022-09-10T14:23:32.320Z,67.34
2022-09-10T14:26:14.556Z,67.21
2022-09-10T14:29:01.006Z,68.59
2022-09-10T14:31:34.633Z,72.79
2022-09-10T14:34:30.428Z,75.35
2022-09-10T14:36:58.582Z,75.05
2022-09-10T14:39:27.787Z,75.86
2022-09-10T14:42:21.478Z,73.23
2022-09-10T14:44:48.978Z,71.98
2022-09-10T14:47:27.208Z,68.86
2022-09-10T14:49:54.730Z,69.54
2022-09-10T14:52:23.492Z,65.93
2022-09-10T14:54:52.345Z,64.27
2022-09-10T14:57:19.966Z,62.96
2022-09-10T14:59:47.783Z,61.80
2022-09-10T15:02:17.690Z,64.36
2022-09-10T15:04:54.050Z,63.97
2022-09-10T15:07:23.534Z,65.87
2022-09-10T15:09:53.417Z,68.25
2022-09-10T15:12:23.879Z,70.28
2022-09-10T15:14:51.960Z,66.92
2022-09-10T15:17:19.881Z,69.29
2022-09-10T15:19:48.548Z,68.61
2022-09-10T15:22:22.779Z,70.25
2022-09-10T15:25:09.140Z,70.37
2022-09-10T15:27:37.482Z,69.82
2022-09-10T15:30:06.215Z,71.65
2022-09-10T15:32:34.152Z,77.31
2022-09-10T15:35:01.804Z,82.05
2022-09-10T15:37:29.303Z,81.74
2022-09-10T15:39:58.429Z,80.82
2022-09-10T15:42:26.075Z,79.06
2022-09-10T15:44:53.619Z,80.98
2022-09-10T15:47:21.137Z,80.33
2022-09-10T15:49:48.682Z,81.84
2022-09-10T15:52:16.189Z,81.75
2022-09-10T15:54:43.834Z,85.36
2022-09-10T15:57:12.695Z,86.02
2022-09-10T15:59:40.494Z,86.02
2022-09-10T16:02:10.476Z,85.83
2022-09-10T16:04:41.354Z,89.28
2022-09-10T16:07:10.927Z,91.33
2022-09-10T16:09:38.713Z,90.29
2022-09-10T16:12:06.604Z,91.13
2022-09-10T16:14:35.991Z,91.54
2022-09-10T16:17:10.186Z,93.83
2022-09-10T16:19:37.991Z,93.76
2022-09-10T16:22:05.723Z,91.89
2022-09-10T16:24:33.645Z,91.38
2022-09-10T16:27:01.272Z,91.40
2022-09-10T16:29:29.369Z,91.30
2022-09-10T16:31:58.217Z,91.59
2022-09-10T16:34:25.882Z,90.91
2022-09-10T16:36:53.410Z,91.83
2022-09-10T16:39:21.101Z,89.58
2022-09-10T16:41:50.684Z,89.71
2022-09-10T16:44:19.284Z,88.37
2022-09-10T16:46:47.478Z,89.29
2022-09-10T16:49:18.326Z,90.29
2022-09-10T16:51:47.383Z,88.96
2022-09-10T16:54:19.243Z,89.06
2022-09-10T16:56:48.254Z,86.53
2022-09-10T16:59:17.731Z,88.30
2022-09-10T17:01:47.713Z,85.12
2022-09-10T17:04:21.340Z,84.41
2022-09-10T17:06:51.043Z,84.48
2022-09-10T17:09:19.036Z,89.65
2022-09-10T17:11:46.608Z,89.88
2022-09-10T17:14:14.116Z,90.19
2022-09-10T17:16:43.554Z,92.86
2022-09-10T17:19:12.493Z,94.25
2022-09-10T17:21:42.703Z,96.32
2022-09-10T17:24:12.110Z,96.85
2022-09-10T17:26:40.760Z,97.82
2022-09-10T17:29:09.996Z,100.00
2022-09-10T17:31:37.970Z,100.00
2022-09-10T17:34:06.043Z,100.00
2022-09-10T17:36:34.795Z,100.00
2022-09-10T17:39:04.119Z,100.00
2022-09-10T17:41:31.927Z,100.00
2022-09-10T17:44:00.331Z,100.00
2022-09-10T17:46:28.408Z,100.00
2022-09-10T17:48:56.087Z,100.00
2022-09-10T17:51:25.290Z,100.00
2022-09-10T17:53:53.941Z,100.00
2022-09-10T17:56:23.866Z,100.00
2022-09-10T17:58:55.659Z,100.00
2022-09-10T18:01:24.580Z,100.00
2022-09-10T18:03:52.504Z,100.00
2022-09-10T18:06:21.324Z,100.00
2022-09-10T18:08:50.340Z,100.00
2022-09-10T18:11:20.459Z,100.00
2022-09-10T18:13:52.298Z,100.00
2022-09-10T18:16:22.251Z,100.00
2022-09-10T18:18:52.705Z,100.00
2022-09-10T18:21:23.864Z,100.00
2022-09-10T18:23:52.881Z,100.00
2022-09-10T18:26:22.111Z,100.00
2022-09-10T18:28:56.807Z,100.00
2022-09-10T18:31:25.106Z,100.00
2022-09-10T18:33:53.618Z,100.00
2022-09-10T18:36:21.668Z,100.00
2022-09-10T18:38:49.186Z,100.00
2022-09-10T18:41:22.290Z,100.00
2022-09-10T18:43:50.882Z,100.00
2022-09-10T18:46:20.786Z,100.00
2022-09-10T18:48:48.692Z,100.00
2022-09-10T18:51:17.926Z,100.00
2022-09-10T18:53:46.367Z,100.00
2022-09-10T18:56:16.116Z,100.00
2022-09-10T18:58:43.952Z,100.00
2022-09-10T19:01:14.058Z,100.00
2022-09-10T19:03:45.110Z,100.00
2022-09-10T19:06:15.120Z,100.00
2022-09-10T19:08:47.558Z,100.00
2022-09-10T19:11:17.365Z,100.00
2022-09-10T19:13:48.963Z,100.00
2022-09-10T19:16:17.080Z,100.00
2022-09-10T19:18:50.550Z,100.00
2022-09-10T19:21:18.157Z,100.00
2022-09-10T19:23:45.664Z,100.00
2022-09-10T19:26:13.497Z,100.00
2022-09-10T19:28:42.052Z,100.00
2022-09-10T19:31:11.656Z,100.00
2022-09-10T19:33:39.513Z,100.00
2022-09-10T19:36:10.540Z,100.00
2022-09-10T19:38:38.346Z,100.00
2022-09-10T19:41:07.780Z,100.00
2022-09-10T19:43:36.374Z,100.00
2022-09-10T19:46:04.597Z,100.00
2022-09-10T19:48:32.375Z,100.00
2022-09-10T19:51:01.050Z,100.00
2022-09-10T19:53:31.426Z,100.00
2022-09-10T19:56:04.060Z,100.00
2022-09-10T19:58:31.604Z,100.00
2022-09-10T20:00:59.110Z,100.00
2022-09-10T20:03:26.643Z,100.00
2022-09-10T20:05:54.169Z,100.00
2022-09-10T20:08:21.671Z,100.00
2022-09-10T20:10:53.302Z,100.00
2022-09-10T20:13:20.838Z,100.00
2022-09-10T20:15:49.330Z,100.00
2022-09-10T20:18:17.009Z,100.00
2022-09-10T20:20:44.552Z,100.00
2022-09-10T20:23:12.060Z,100.00
2022-09-10T20:25:39.923Z,100.00
2022-09-10T20:28:08.836Z,100.00
2022-09-10T20:30:36.579Z,100.00
2022-09-10T20:33:04.083Z,100.00
2022-09-10T20:35:31.627Z,100.00
2022-09-10T20:37:59.383Z,100.00
2022-09-10T20:40:26.906Z,100.00
2022-09-10T20:42:54.404Z,100.00
2022-09-10T20:45:24.411Z,100.00
2022-09-10T20:47:51.931Z,100.00
2022-09-10T20:50:19.443Z,100.00
2022-09-10T20:52:47.064Z,100.00
2022-09-10T20:55:14.675Z,100.00
2022-09-10T20:57:42.188Z,100.00
2022-09-10T21:00:11.392Z,100.00
2022-09-10T21:02:40.281Z,100.00
2022-09-10T21:05:08.588Z,100.00
2022-09-10T21:07:36.113Z,100.00
2022-09-10T21:10:03.608Z,100.00
2022-09-10T21:12:31.152Z,100.00
2022-09-10T21:14:58.660Z,100.00
2022-09-10T21:17:26.186Z,100.00
2022-09-10T21:19:55.021Z,100.00
2022-09-10T21:22:22.547Z,100.00
2022-09-10T21:24:50.037Z,100.00
2022-09-10T21:27:17.550Z,100.00
2022-09-10T21:29:45.083Z,100.00
2022-09-10T21:32:12.580Z,100.00
2022-09-10T21:34:40.643Z,100.00
2022-09-10T21:37:10.191Z,100.00
2022-09-10T21:39:37.731Z,100.00
2022-09-10T21:42:05.591Z,100.00
2022-09-10T21:44:33.147Z,100.00
2022-09-10T21:47:00.653Z,100.00
2022-09-10T21:49:28.144Z,100.00
2022-09-10T21:51:55.668Z,100.00
2022-09-10T21:54:25.338Z,100.00
2022-09-10T21:56:53.027Z,100.00
2022-09-10T21:59:21.440Z,100.00
2022-09-10T22:01:49.839Z,100.00
2022-09-10T22:04:22.061Z,100.00
2022-09-10T22:06:50.707Z,100.00
2022-09-10T22:09:19.729Z,100.00
2022-09-10T22:11:51.861Z,100.00
2022-09-10T22:14:21.373Z,100.00
2022-09-10T22:16:49.106Z,100.00
2022-09-10T22:19:18.477Z,100.00
2022-09-10T22:21:46.064Z,100.00
2022-09-10T22:24:17.196Z,100.00
2022-09-10T22:26:45.355Z,100.00
2022-09-10T22:29:16.633Z,100.00
2022-09-10T22:31:44.155Z,100.00
2022-09-10T22:34:13.258Z,100.00
2022-09-10T22:36:41.847Z,100.00
2022-09-10T22:39:12.630Z,100.00
2022-09-10T22:41:40.755Z,100.00
2022-09-10T22:44:08.488Z,100.00
2022-09-10T22:46:38.399Z,100.00
2022-09-10T22:49:06.445Z,100.00
2022-09-10T22:51:36.024Z,100.00
2022-09-10T22:54:04.769Z,100.00
2022-09-10T22:56:32.297Z,100.00
2022-09-10T22:59:00.677Z,100.00
2022-09-10T23:01:29.583Z,100.00
2022-09-10T23:03:59.407Z,100.00
2022-09-10T23:06:28.251Z,100.00
2022-09-10T23:08:57.362Z,100.00
2022-09-10T23:11:26.684Z,100.00
2022-09-10T23:13:56.674Z,100.00
2022-09-10T23:16:26.171Z,100.00
2022-09-10T23:18:55.146Z,100.00
2022-09-10T23:21:25.051Z,100.00
2022-09-10T23:23:54.312Z,100.00
2022-09-10T23:26:22.398Z,100.00
2022-09-10T23:28:50.401Z,100.00
2022-09-10T23:31:20.534Z,100.00
2022-09-10T23:33:49.294Z,100.00
2022-09-10T23:36:16.804Z,100.00
2022-09-10T23:38:45.677Z,100.00
2022-09-10T23:41:13.688Z,100.00
2022-09-10T23:43:41.458Z,100.00
2022-09-10T23:46:10.214Z,100.00
2022-09-10T23:48:38.153Z,100.00
2022-09-10T23:51:06.447Z,100.00
2022-09-10T23:53:34.239Z,100.00
2022-09-10T23:56:04.510Z,100.00
2022-09-10T23:58:32.015Z,100.00
